TimeEDT,TemperatureF,Dew PointF,Humidity,Sea Level PressureIn,VisibilityMPH,Wind Direction,Wind SpeedMPH,Gust SpeedMPH,PrecipitationIn,Events,Conditions,WindDirDegrees,DateUTC
12:15 AM,50.0,44.6,82,30.22,10.0,NNW,3.5,-,N/A,,Overcast,340,2012-10-09 04:15:00
12:57 AM,50.0,42.8,76,30.22,10.0,NNW,4.6,-,N/A,,Overcast,340,2012-10-09 04:57:00
1:18 AM,50.0,42.8,76,30.21,10.0,NW,4.6,-,N/A,,Overcast,320,2012-10-09 05:18:00
1:39 AM,50.0,42.8,76,30.21,10.0,NW,4.6,-,N/A,,Mostly Cloudy,320,2012-10-09 05:39:00
2:00 AM,50.0,42.8,76,30.21,10.0,NW,6.9,-,N/A,,Mostly Cloudy,320,2012-10-09 06:00:00
2:21 AM,50.0,42.8,76,30.21,10.0,NW,5.8,-,N/A,,Overcast,310,2012-10-09 06:21:00
2:45 AM,50.0,42.8,76,30.21,10.0,WNW,6.9,-,N/A,Rain,Light Rain,300,2012-10-09 06:45:00
3:06 AM,48.2,44.6,87,30.20,10.0,NNW,4.6,-,N/A,Rain,Light Rain,340,2012-10-09 07:06:00
3:27 AM,48.2,44.6,87,30.20,10.0,Calm,Calm,-,0.01,Rain,Light Rain,0,2012-10-09 07:27:00
3:48 AM,48.2,44.6,87,30.20,10.0,NW,5.8,-,0.01,Rain,Rain,320,2012-10-09 07:48:00
4:09 AM,48.2,44.6,87,30.20,10.0,Calm,Calm,-,N/A,Rain,Light Rain,0,2012-10-09 08:09:00
4:30 AM,48.2,44.6,87,30.20,10.0,Calm,Calm,-,0.01,Rain,Rain,0,2012-10-09 08:30:00
4:51 AM,48.2,44.6,87,30.20,7.0,NNW,4.6,-,0.02,Rain,Light Rain,340,2012-10-09 08:51:00
5:33 AM,48.2,46.4,93,30.20,10.0,WNW,4.6,-,0.01,,Overcast,300,2012-10-09 09:33:00
5:45 AM,48.2,46.4,93,30.20,5.0,NW,4.6,-,N/A,,Drizzle,310,2012-10-09 09:45:00
6:45 AM,48.2,48.2,100,30.20,7.0,NNW,3.5,-,N/A,,Drizzle,330,2012-10-09 10:45:00
7:15 AM,48.2,48.2,100,30.20,10.0,Calm,Calm,-,N/A,,Overcast,0,2012-10-09 11:15:00
7:55 AM,50.0,48.2,94,30.20,7.0,Calm,Calm,-,N/A,,Mostly Cloudy,0,2012-10-09 11:55:00
8:45 AM,50.0,48.2,94,30.20,10.0,NNW,3.5,-,N/A,,Mostly Cloudy,330,2012-10-09 12:45:00
9:50 AM,53.6,50.0,88,30.19,7.0,North,4.6,-,N/A,,Mostly Cloudy,350,2012-10-09 13:50:00
10:55 AM,55.4,50.0,82,30.20,7.0,North,4.6,-,N/A,,Overcast,350,2012-10-09 14:55:00
11:45 AM,57.2,50.0,77,30.18,10.0,North,3.5,-,N/A,,Mostly Cloudy,360,2012-10-09 15:45:00
1:45 PM,59.0,51.8,77,30.14,7.0,NNW,6.9,-,N/A,,Overcast,330,2012-10-09 17:45:00
2:45 PM,59.0,53.6,82,30.13,10.0,North,4.6,-,N/A,,Overcast,360,2012-10-09 18:45:00
3:45 PM,59.0,53.6,82,30.13,10.0,Calm,Calm,-,N/A,,Overcast,0,2012-10-09 19:45:00
4:45 PM,59.0,53.6,82,30.12,10.0,North,4.6,-,N/A,,Overcast,350,2012-10-09 20:45:00
5:45 PM,59.0,53.6,82,30.12,10.0,NNW,5.8,-,N/A,,Overcast,330,2012-10-09 21:45:00
6:45 PM,57.2,53.6,88,30.11,10.0,NNW,4.6,-,N/A,,Overcast,340,2012-10-09 22:45:00
7:55 PM,57.2,53.6,88,30.11,10.0,Calm,Calm,-,N/A,,Overcast,0,2012-10-09 23:55:00
8:45 PM,57.2,55.4,94,30.10,10.0,NNW,3.5,-,N/A,,Overcast,330,2012-10-10 00:45:00
9:45 PM,57.2,53.6,88,30.11,7.0,NW,3.5,-,N/A,Rain,Light Rain,320,2012-10-10 01:45:00
10:12 PM,55.4,53.6,94,30.10,7.0,Calm,Calm,-,N/A,,Overcast,0,2012-10-10 02:12:00
10:36 PM,55.4,53.6,94,30.10,7.0,NW,4.6,-,N/A,,Overcast,310,2012-10-10 02:36:00
10:57 PM,55.4,53.6,94,30.09,7.0,WNW,3.5,-,N/A,,Overcast,290,2012-10-10 02:57:00
11:18 PM,55.4,53.6,94,30.09,5.0,WNW,3.5,-,N/A,Rain,Rain,300,2012-10-10 03:18:00